Time,TemperatureF,DewpointF,PressureIn,WindDirection,WindDirectionDegrees,WindSpeedMPH,WindSpeedGustMPH,Humidity,HourlyPrecipIn,Conditions,Clouds,dailyrainin,SoftwareType,DateUTC
2013-09-11 00:14:00,75.0,73.0,30.05,East,79,0.0,0.0,94,0.01,,,0.01,,2013-09-11 04:14:00,
2013-09-11 00:24:00,75.0,73.0,30.04,ESE,115,0.0,0.0,94,0.01,,,0.01,,2013-09-11 04:24:00,
2013-09-11 00:54:00,74.0,72.0,30.04,ESE,115,0.0,0.0,95,0.00,,,0.01,,2013-09-11 04:54:00,
2013-09-11 01:23:00,73.0,71.0,30.02,ESE,115,0.0,0.0,95,0.00,,,0.01,,2013-09-11 05:23:00,
2013-09-11 01:53:00,73.0,72.0,30.01,ESE,115,0.0,0.0,96,0.00,,,0.01,,2013-09-11 05:53:00,
2013-09-11 02:22:00,73.0,72.0,30.01,ESE,115,0.0,0.0,96,0.00,,,0.01,,2013-09-11 06:22:00,
2013-09-11 02:52:00,73.0,72.0,30.00,ESE,115,0.0,0.0,97,0.00,,,0.01,,2013-09-11 06:52:00,
2013-09-11 03:23:00,73.0,72.0,30.00,ESE,115,0.0,0.0,97,0.00,,,0.01,,2013-09-11 07:23:00,
2013-09-11 03:53:00,73.0,72.0,30.00,ESE,115,0.0,0.0,97,0.00,,,0.01,,2013-09-11 07:53:00,
2013-09-11 04:22:00,73.0,72.0,30.00,ESE,115,0.0,0.0,97,0.00,,,0.01,,2013-09-11 08:22:00,
2013-09-11 04:52:00,74.0,73.0,30.01,WNW,284,0.0,0.0,97,0.18,,,0.19,,2013-09-11 08:52:00,
2013-09-11 05:21:00,74.0,73.0,30.00,WNW,284,0.0,0.0,97,0.18,,,0.19,,2013-09-11 09:21:00,
2013-09-11 05:53:00,74.0,73.0,30.00,NE,46,0.0,2.0,98,0.00,,,0.19,,2013-09-11 09:53:00,
2013-09-11 06:23:00,75.0,74.0,30.00,ENE,74,0.0,0.0,97,0.00,,,0.19,,2013-09-11 10:23:00,
2013-09-11 06:53:00,75.0,74.0,30.00,ENE,72,0.0,0.0,97,0.00,,,0.19,,2013-09-11 10:53:00,
2013-09-11 07:21:00,74.0,73.0,30.01,ENE,72,0.0,1.0,97,0.01,,,0.20,,2013-09-11 11:21:00,
2013-09-11 07:52:00,75.0,74.0,30.03,ENE,72,0.0,0.0,97,0.01,,,0.20,,2013-09-11 11:52:00,
2013-09-11 08:21:00,77.0,76.0,30.03,ENE,72,0.0,0.0,98,0.00,,,0.20,,2013-09-11 12:21:00,
2013-09-11 08:52:00,77.0,75.0,30.03,ENE,72,0.0,0.0,95,0.00,,,0.20,,2013-09-11 12:52:00,
2013-09-11 09:22:00,77.0,75.0,30.04,ENE,72,0.0,0.0,95,0.00,,,0.20,,2013-09-11 13:22:00,
2013-09-11 09:52:00,77.0,74.0,30.06,East,86,4.0,10.0,90,0.00,,,0.20,,2013-09-11 13:52:00,
2013-09-11 10:52:00,73.0,72.0,30.06,ENE,70,0.0,3.0,96,0.13,,,0.33,,2013-09-11 14:52:00,
2013-09-11 11:22:00,78.0,73.0,30.06,East,84,10.0,17.0,84,0.01,,,0.33,,2013-09-11 15:22:00,
2013-09-11 13:23:00,74.0,73.0,30.05,East,97,0.0,2.0,96,0.31,,,0.80,,2013-09-11 17:23:00,
2013-09-11 13:52:00,77.0,75.0,30.05,ESE,114,2.0,5.0,93,0.00,,,0.80,,2013-09-11 17:52:00,
2013-09-11 14:22:00,79.0,76.0,30.02,East,84,0.0,3.0,91,0.00,,,0.80,,2013-09-11 18:22:00,
2013-09-11 14:52:00,83.0,77.0,30.01,ENE,67,3.0,7.0,83,0.00,,,0.80,,2013-09-11 18:52:00,
2013-09-11 15:22:00,83.0,78.0,30.00,East,97,3.0,10.0,84,0.00,,,0.80,,2013-09-11 19:22:00,
2013-09-11 15:53:00,84.0,78.0,29.99,East,87,1.0,9.0,82,0.00,,,0.80,,2013-09-11 19:53:00,
2013-09-11 16:22:00,84.0,76.0,29.98,East,90,2.0,10.0,78,0.00,,,0.80,,2013-09-11 20:22:00,
2013-09-11 16:52:00,84.0,76.0,29.99,ENE,66,3.0,10.0,78,0.00,,,0.80,,2013-09-11 20:52:00,
2013-09-11 17:22:00,84.0,76.0,29.99,NE,42,2.0,6.0,77,0.00,,,0.80,,2013-09-11 21:22:00,
2013-09-11 17:54:00,84.0,76.0,29.98,ENE,68,3.0,9.0,76,0.00,,,0.80,,2013-09-11 21:54:00,
2013-09-11 18:24:00,83.0,76.0,29.98,East,88,2.0,10.0,79,0.00,,,0.80,,2013-09-11 22:24:00,
2013-09-11 18:54:00,83.0,76.0,29.98,ENE,66,0.0,1.0,80,0.00,,,0.80,,2013-09-11 22:54:00,
2013-09-11 19:22:00,82.0,75.0,29.99,ENE,74,0.0,5.0,80,0.00,,,0.80,,2013-09-11 23:22:00,
2013-09-11 19:53:00,80.0,75.0,29.99,East,79,0.0,0.0,84,0.00,,,0.80,,2013-09-11 23:53:00,
2013-09-11 20:22:00,79.0,75.0,29.99,East,81,0.0,0.0,88,0.00,,,0.80,,2013-09-12 00:22:00,
2013-09-11 20:52:00,78.0,75.0,30.00,East,81,0.0,0.0,90,0.00,,,0.80,,2013-09-12 00:52:00,
2013-09-11 21:22:00,77.0,74.0,30.01,East,81,0.0,0.0,92,0.00,,,0.80,,2013-09-12 01:22:00,
2013-09-11 21:52:00,76.0,74.0,30.01,East,81,0.0,0.0,93,0.00,,,0.80,,2013-09-12 01:52:00,
2013-09-11 22:22:00,76.0,74.0,30.01,East,81,0.0,0.0,94,0.00,,,0.80,,2013-09-12 02:22:00,
2013-09-11 23:22:00,75.0,74.0,30.01,East,81,0.0,0.0,96,0.00,,,0.80,,2013-09-12 03:22:00,
2013-09-11 23:55:00,74.0,73.0,30.01,East,81,0.0,0.0,96,0.00,,,0.79,,2013-09-12 03:55:00,